sensor_id;sensor_type;location;lat;lon;timestamp;P1;durP1;ratioP1;P2;durP2;ratioP2
10880;SDS011;5493;48.884;8.338;2023-12-20T00:01:51;7.13;;;3.33;;
10880;SDS011;5493;48.884;8.338;2023-12-20T00:04:17;4.87;;;2.93;;
10880;SDS011;5493;48.884;8.338;2023-12-20T00:06:45;3.93;;;2.50;;
10880;SDS011;5493;48.884;8.338;2023-12-20T00:09:11;4.17;;;2.13;;
10880;SDS011;5493;48.884;8.338;2023-12-20T00:11:38;8.20;;;3.37;;
10880;SDS011;5493;48.884;8.338;2023-12-20T00:14:07;3.60;;;2.33;;
10880;SDS011;5493;48.884;8.338;2023-12-20T00:16:33;3.33;;;2.00;;
10880;SDS011;5493;48.884;8.338;2023-12-20T00:19:00;3.40;;;2.10;;
10880;SDS011;5493;48.884;8.338;2023-12-20T00:21:26;3.87;;;2.33;;
10880;SDS011;5493;48.884;8.338;2023-12-20T00:23:54;1.40;;;1.30;;
10880;SDS011;5493;48.884;8.338;2023-12-20T00:26:21;2.67;;;1.80;;
10880;SDS011;5493;48.884;8.338;2023-12-20T00:28:47;4.37;;;2.10;;
10880;SDS011;5493;48.884;8.338;2023-12-20T00:31:14;2.70;;;1.80;;
10880;SDS011;5493;48.884;8.338;2023-12-20T00:33:40;3.67;;;2.00;;
10880;SDS011;5493;48.884;8.338;2023-12-20T00:36:08;1.03;;;0.90;;
10880;SDS011;5493;48.884;8.338;2023-12-20T00:38:35;2.57;;;1.70;;
10880;SDS011;5493;48.884;8.338;2023-12-20T00:41:03;1.70;;;1.03;;
10880;SDS011;5493;48.884;8.338;2023-12-20T00:43:29;2.57;;;1.67;;
10880;SDS011;5493;48.884;8.338;2023-12-20T00:45:56;4.33;;;2.30;;
10880;SDS011;5493;48.884;8.338;2023-12-20T00:48:25;4.27;;;1.90;;
10880;SDS011;5493;48.884;8.338;2023-12-20T00:50:52;2.87;;;1.90;;
10880;SDS011;5493;48.884;8.338;2023-12-20T00:53:18;5.90;;;2.37;;
10880;SDS011;5493;48.884;8.338;2023-12-20T00:55:45;1.77;;;1.30;;
10880;SDS011;5493;48.884;8.338;2023-12-20T00:58:13;2.53;;;1.67;;
10880;SDS011;5493;48.884;8.338;2023-12-20T01:00:40;3.57;;;1.70;;
10880;SDS011;5493;48.884;8.338;2023-12-20T01:03:07;2.87;;;1.93;;
10880;SDS011;5493;48.884;8.338;2023-12-20T01:05:33;2.30;;;1.67;;
10880;SDS011;5493;48.884;8.338;2023-12-20T01:08:00;3.03;;;1.60;;
10880;SDS011;5493;48.884;8.338;2023-12-20T01:10:28;2.80;;;1.73;;
10880;SDS011;5493;48.884;8.338;2023-12-20T01:12:54;3.33;;;1.90;;
10880;SDS011;5493;48.884;8.338;2023-12-20T01:15:22;4.63;;;2.57;;
10880;SDS011;5493;48.884;8.338;2023-12-20T01:17:49;1.90;;;1.23;;
10880;SDS011;5493;48.884;8.338;2023-12-20T01:20:16;4.43;;;2.00;;
10880;SDS011;5493;48.884;8.338;2023-12-20T01:22:45;3.53;;;1.90;;
10880;SDS011;5493;48.884;8.338;2023-12-20T01:25:11;2.67;;;1.63;;
10880;SDS011;5493;48.884;8.338;2023-12-20T01:27:38;4.57;;;1.70;;
10880;SDS011;5493;48.884;8.338;2023-12-20T01:30:05;1.87;;;1.50;;
10880;SDS011;5493;48.884;8.338;2023-12-20T01:32:33;1.77;;;1.17;;
10880;SDS011;5493;48.884;8.338;2023-12-20T01:35:00;1.20;;;1.10;;
10880;SDS011;5493;48.884;8.338;2023-12-20T01:37:26;1.80;;;1.57;;
10880;SDS011;5493;48.884;8.338;2023-12-20T01:39:54;1.30;;;1.17;;
10880;SDS011;5493;48.884;8.338;2023-12-20T01:42:20;1.97;;;1.57;;
10880;SDS011;5493;48.884;8.338;2023-12-20T01:44:47;2.53;;;1.63;;
10880;SDS011;5493;48.884;8.338;2023-12-20T01:47:14;2.23;;;1.63;;
10880;SDS011;5493;48.884;8.338;2023-12-20T01:49:42;2.67;;;1.70;;
10880;SDS011;5493;48.884;8.338;2023-12-20T01:52:09;1.37;;;1.13;;
10880;SDS011;5493;48.884;8.338;2023-12-20T01:54:36;1.43;;;1.20;;
10880;SDS011;5493;48.884;8.338;2023-12-20T01:57:04;1.87;;;1.20;;
10880;SDS011;5493;48.884;8.338;2023-12-20T01:59:32;1.30;;;1.20;;
10880;SDS011;5493;48.884;8.338;2023-12-20T02:01:59;1.77;;;1.27;;
10880;SDS011;5493;48.884;8.338;2023-12-20T02:04:26;1.40;;;1.20;;
10880;SDS011;5493;48.884;8.338;2023-12-20T02:06:54;0.90;;;0.83;;
10880;SDS011;5493;48.884;8.338;2023-12-20T02:09:22;1.53;;;1.23;;
10880;SDS011;5493;48.884;8.338;2023-12-20T02:11:49;2.17;;;1.37;;
10880;SDS011;5493;48.884;8.338;2023-12-20T02:14:16;1.43;;;1.00;;
10880;SDS011;5493;48.884;8.338;2023-12-20T02:16:42;2.20;;;1.30;;
10880;SDS011;5493;48.884;8.338;2023-12-20T02:19:10;1.00;;;0.80;;
10880;SDS011;5493;48.884;8.338;2023-12-20T02:21:41;2.63;;;1.23;;
10880;SDS011;5493;48.884;8.338;2023-12-20T02:24:08;1.17;;;0.90;;
10880;SDS011;5493;48.884;8.338;2023-12-20T02:26:34;0.70;;;0.67;;
10880;SDS011;5493;48.884;8.338;2023-12-20T02:29:01;1.60;;;0.80;;
10880;SDS011;5493;48.884;8.338;2023-12-20T02:31:28;2.43;;;1.40;;
10880;SDS011;5493;48.884;8.338;2023-12-20T02:33:54;1.50;;;1.00;;
10880;SDS011;5493;48.884;8.338;2023-12-20T02:36:21;1.00;;;0.87;;
10880;SDS011;5493;48.884;8.338;2023-12-20T02:38:49;1.60;;;1.27;;
10880;SDS011;5493;48.884;8.338;2023-12-20T02:41:15;1.50;;;1.33;;
10880;SDS011;5493;48.884;8.338;2023-12-20T02:43:43;2.20;;;1.50;;
10880;SDS011;5493;48.884;8.338;2023-12-20T02:46:09;0.77;;;0.77;;
10880;SDS011;5493;48.884;8.338;2023-12-20T02:48:36;1.27;;;1.00;;
10880;SDS011;5493;48.884;8.338;2023-12-20T02:51:02;1.00;;;0.90;;
10880;SDS011;5493;48.884;8.338;2023-12-20T02:53:29;1.10;;;1.00;;
10880;SDS011;5493;48.884;8.338;2023-12-20T02:55:57;1.40;;;1.10;;
10880;SDS011;5493;48.884;8.338;2023-12-20T02:58:24;1.13;;;0.87;;
10880;SDS011;5493;48.884;8.338;2023-12-20T03:00:50;0.77;;;0.77;;
10880;SDS011;5493;48.884;8.338;2023-12-20T03:03:17;1.57;;;1.20;;
10880;SDS011;5493;48.884;8.338;2023-12-20T03:05:43;2.07;;;1.20;;
10880;SDS011;5493;48.884;8.338;2023-12-20T03:08:11;1.27;;;1.13;;
10880;SDS011;5493;48.884;8.338;2023-12-20T03:10:37;1.47;;;1.10;;
10880;SDS011;5493;48.884;8.338;2023-12-20T03:13:05;2.50;;;1.30;;
10880;SDS011;5493;48.884;8.338;2023-12-20T03:15:32;2.43;;;1.20;;
10880;SDS011;5493;48.884;8.338;2023-12-20T03:17:58;0.77;;;0.70;;
10880;SDS011;5493;48.884;8.338;2023-12-20T03:20:25;1.13;;;0.80;;
10880;SDS011;5493;48.884;8.338;2023-12-20T03:22:52;1.40;;;1.10;;
10880;SDS011;5493;48.884;8.338;2023-12-20T03:25:18;2.03;;;1.27;;
10880;SDS011;5493;48.884;8.338;2023-12-20T03:27:45;1.27;;;1.03;;
10880;SDS011;5493;48.884;8.338;2023-12-20T03:30:13;1.27;;;0.83;;
10880;SDS011;5493;48.884;8.338;2023-12-20T03:32:39;2.27;;;1.40;;
10880;SDS011;5493;48.884;8.338;2023-12-20T03:35:06;2.07;;;1.20;;
10880;SDS011;5493;48.884;8.338;2023-12-20T03:37:33;1.30;;;1.00;;
10880;SDS011;5493;48.884;8.338;2023-12-20T03:39:59;2.47;;;1.50;;
10880;SDS011;5493;48.884;8.338;2023-12-20T03:42:26;1.20;;;1.10;;
10880;SDS011;5493;48.884;8.338;2023-12-20T03:44:52;0.70;;;0.70;;
10880;SDS011;5493;48.884;8.338;2023-12-20T03:47:20;1.10;;;1.00;;
10880;SDS011;5493;48.884;8.338;2023-12-20T03:49:47;1.60;;;0.90;;
10880;SDS011;5493;48.884;8.338;2023-12-20T03:52:13;2.80;;;0.90;;
10880;SDS011;5493;48.884;8.338;2023-12-20T03:54:40;0.60;;;0.60;;
10880;SDS011;5493;48.884;8.338;2023-12-20T03:57:07;1.07;;;0.90;;
10880;SDS011;5493;48.884;8.338;2023-12-20T03:59:34;0.83;;;0.83;;
10880;SDS011;5493;48.884;8.338;2023-12-20T04:02:01;0.73;;;0.50;;
10880;SDS011;5493;48.884;8.338;2023-12-20T04:04:29;0.87;;;0.60;;
10880;SDS011;5493;48.884;8.338;2023-12-20T04:06:56;1.67;;;0.60;;
10880;SDS011;5493;48.884;8.338;2023-12-20T04:09:22;1.03;;;0.90;;
10880;SDS011;5493;48.884;8.338;2023-12-20T04:11:49;2.47;;;1.03;;
10880;SDS011;5493;48.884;8.338;2023-12-20T04:14:16;1.00;;;0.90;;
10880;SDS011;5493;48.884;8.338;2023-12-20T04:16:42;1.33;;;0.63;;
10880;SDS011;5493;48.884;8.338;2023-12-20T04:19:09;1.13;;;1.03;;
10880;SDS011;5493;48.884;8.338;2023-12-20T04:21:37;1.70;;;1.07;;
10880;SDS011;5493;48.884;8.338;2023-12-20T04:24:03;0.87;;;0.70;;
10880;SDS011;5493;48.884;8.338;2023-12-20T04:26:30;3.30;;;1.50;;
10880;SDS011;5493;48.884;8.338;2023-12-20T04:28:56;1.17;;;0.83;;
10880;SDS011;5493;48.884;8.338;2023-12-20T04:31:23;1.07;;;0.97;;
10880;SDS011;5493;48.884;8.338;2023-12-20T04:33:49;2.77;;;2.37;;
10880;SDS011;5493;48.884;8.338;2023-12-20T04:36:16;2.83;;;1.20;;
10880;SDS011;5493;48.884;8.338;2023-12-20T04:38:44;2.37;;;1.70;;
10880;SDS011;5493;48.884;8.338;2023-12-20T04:41:10;1.27;;;1.10;;
10880;SDS011;5493;48.884;8.338;2023-12-20T04:43:40;2.20;;;1.00;;
10880;SDS011;5493;48.884;8.338;2023-12-20T04:46:07;2.07;;;1.50;;
10880;SDS011;5493;48.884;8.338;2023-12-20T04:48:33;1.73;;;1.47;;
10880;SDS011;5493;48.884;8.338;2023-12-20T04:51:00;1.37;;;1.10;;
10880;SDS011;5493;48.884;8.338;2023-12-20T04:53:27;1.30;;;1.10;;
10880;SDS011;5493;48.884;8.338;2023-12-20T04:55:55;1.47;;;1.27;;
10880;SDS011;5493;48.884;8.338;2023-12-20T04:58:21;1.87;;;1.60;;
10880;SDS011;5493;48.884;8.338;2023-12-20T05:00:48;4.37;;;2.87;;
10880;SDS011;5493;48.884;8.338;2023-12-20T05:03:14;4.63;;;2.50;;
10880;SDS011;5493;48.884;8.338;2023-12-20T05:05:41;2.83;;;1.50;;
10880;SDS011;5493;48.884;8.338;2023-12-20T05:08:07;2.43;;;1.90;;
10880;SDS011;5493;48.884;8.338;2023-12-20T05:10:34;2.90;;;2.23;;
10880;SDS011;5493;48.884;8.338;2023-12-20T05:13:03;1.90;;;1.30;;
10880;SDS011;5493;48.884;8.338;2023-12-20T05:15:29;1.30;;;1.13;;
10880;SDS011;5493;48.884;8.338;2023-12-20T05:17:56;1.30;;;1.17;;
10880;SDS011;5493;48.884;8.338;2023-12-20T05:20:22;4.13;;;1.40;;
10880;SDS011;5493;48.884;8.338;2023-12-20T05:22:49;2.60;;;1.47;;
10880;SDS011;5493;48.884;8.338;2023-12-20T05:25:16;2.87;;;1.73;;
10880;SDS011;5493;48.884;8.338;2023-12-20T05:27:42;1.27;;;1.10;;
10880;SDS011;5493;48.884;8.338;2023-12-20T05:30:11;2.30;;;1.40;;
10880;SDS011;5493;48.884;8.338;2023-12-20T05:32:37;2.73;;;1.43;;
10880;SDS011;5493;48.884;8.338;2023-12-20T05:35:04;1.40;;;1.20;;
10880;SDS011;5493;48.884;8.338;2023-12-20T05:37:31;2.77;;;1.73;;
10880;SDS011;5493;48.884;8.338;2023-12-20T05:39:57;1.33;;;1.20;;
10880;SDS011;5493;48.884;8.338;2023-12-20T05:42:24;2.40;;;1.60;;
10880;SDS011;5493;48.884;8.338;2023-12-20T05:44:51;2.57;;;1.60;;
10880;SDS011;5493;48.884;8.338;2023-12-20T05:47:18;1.77;;;1.40;;
10880;SDS011;5493;48.884;8.338;2023-12-20T05:49:45;2.30;;;1.57;;
10880;SDS011;5493;48.884;8.338;2023-12-20T05:52:11;2.43;;;1.90;;
10880;SDS011;5493;48.884;8.338;2023-12-20T05:54:38;0.90;;;0.77;;
10880;SDS011;5493;48.884;8.338;2023-12-20T05:57:05;2.10;;;1.60;;
10880;SDS011;5493;48.884;8.338;2023-12-20T05:59:31;1.10;;;1.00;;
10880;SDS011;5493;48.884;8.338;2023-12-20T06:01:59;2.57;;;1.53;;
10880;SDS011;5493;48.884;8.338;2023-12-20T06:04:27;1.90;;;1.23;;
10880;SDS011;5493;48.884;8.338;2023-12-20T06:06:54;1.43;;;0.97;;
10880;SDS011;5493;48.884;8.338;2023-12-20T06:09:20;3.27;;;1.80;;
10880;SDS011;5493;48.884;8.338;2023-12-20T06:11:47;1.73;;;1.27;;
10880;SDS011;5493;48.884;8.338;2023-12-20T06:14:13;2.87;;;2.20;;
10880;SDS011;5493;48.884;8.338;2023-12-20T06:16:40;2.27;;;1.90;;
10880;SDS011;5493;48.884;8.338;2023-12-20T06:19:06;2.97;;;1.90;;
10880;SDS011;5493;48.884;8.338;2023-12-20T06:21:34;2.10;;;1.47;;
10880;SDS011;5493;48.884;8.338;2023-12-20T06:24:01;3.27;;;2.10;;
10880;SDS011;5493;48.884;8.338;2023-12-20T06:26:27;3.90;;;2.03;;
10880;SDS011;5493;48.884;8.338;2023-12-20T06:28:54;4.80;;;3.40;;
10880;SDS011;5493;48.884;8.338;2023-12-20T06:31:20;5.83;;;3.37;;
10880;SDS011;5493;48.884;8.338;2023-12-20T06:33:47;4.60;;;3.10;;
10880;SDS011;5493;48.884;8.338;2023-12-20T06:36:22;7.37;;;4.20;;
10880;SDS011;5493;48.884;8.338;2023-12-20T06:38:50;8.13;;;3.40;;
10880;SDS011;5493;48.884;8.338;2023-12-20T06:41:16;3.53;;;2.17;;
10880;SDS011;5493;48.884;8.338;2023-12-20T06:43:43;4.73;;;3.17;;
10880;SDS011;5493;48.884;8.338;2023-12-20T06:46:09;5.80;;;2.80;;
10880;SDS011;5493;48.884;8.338;2023-12-20T06:48:38;11.63;;;4.43;;
10880;SDS011;5493;48.884;8.338;2023-12-20T06:51:05;8.97;;;4.43;;
10880;SDS011;5493;48.884;8.338;2023-12-20T06:53:32;7.17;;;3.50;;
10880;SDS011;5493;48.884;8.338;2023-12-20T06:55:59;16.53;;;7.20;;
10880;SDS011;5493;48.884;8.338;2023-12-20T06:58:26;8.17;;;4.10;;
10880;SDS011;5493;48.884;8.338;2023-12-20T07:00:52;7.03;;;4.90;;
10880;SDS011;5493;48.884;8.338;2023-12-20T07:03:19;3.47;;;2.50;;
10880;SDS011;5493;48.884;8.338;2023-12-20T07:05:45;3.10;;;2.40;;
10880;SDS011;5493;48.884;8.338;2023-12-20T07:08:12;3.63;;;2.40;;
10880;SDS011;5493;48.884;8.338;2023-12-20T07:10:40;3.63;;;2.80;;
10880;SDS011;5493;48.884;8.338;2023-12-20T07:13:08;3.63;;;2.37;;
10880;SDS011;5493;48.884;8.338;2023-12-20T07:15:35;4.53;;;3.43;;
10880;SDS011;5493;48.884;8.338;2023-12-20T07:18:02;2.83;;;2.47;;
10880;SDS011;5493;48.884;8.338;2023-12-20T07:20:27;2.37;;;2.00;;
10880;SDS011;5493;48.884;8.338;2023-12-20T07:22:54;3.50;;;2.50;;
10880;SDS011;5493;48.884;8.338;2023-12-20T07:25:21;4.20;;;2.77;;
10880;SDS011;5493;48.884;8.338;2023-12-20T07:27:47;3.63;;;2.77;;
10880;SDS011;5493;48.884;8.338;2023-12-20T07:30:15;3.70;;;2.90;;
10880;SDS011;5493;48.884;8.338;2023-12-20T07:32:42;4.80;;;3.30;;
10880;SDS011;5493;48.884;8.338;2023-12-20T07:35:08;4.03;;;3.40;;
10880;SDS011;5493;48.884;8.338;2023-12-20T07:37:35;2.97;;;2.37;;
10880;SDS011;5493;48.884;8.338;2023-12-20T07:40:01;3.03;;;2.33;;
10880;SDS011;5493;48.884;8.338;2023-12-20T07:42:28;3.00;;;2.10;;
10880;SDS011;5493;48.884;8.338;2023-12-20T07:44:55;2.83;;;2.27;;
10880;SDS011;5493;48.884;8.338;2023-12-20T07:47:23;3.57;;;2.70;;
10880;SDS011;5493;48.884;8.338;2023-12-20T07:49:50;3.90;;;2.53;;
10880;SDS011;5493;48.884;8.338;2023-12-20T07:52:17;3.23;;;2.17;;
10880;SDS011;5493;48.884;8.338;2023-12-20T07:54:44;3.07;;;1.93;;
10880;SDS011;5493;48.884;8.338;2023-12-20T07:57:11;4.13;;;2.83;;
10880;SDS011;5493;48.884;8.338;2023-12-20T07:59:38;4.37;;;2.60;;
10880;SDS011;5493;48.884;8.338;2023-12-20T08:02:04;5.13;;;2.50;;
10880;SDS011;5493;48.884;8.338;2023-12-20T08:04:32;3.57;;;2.23;;
10880;SDS011;5493;48.884;8.338;2023-12-20T08:06:59;2.77;;;2.30;;
10880;SDS011;5493;48.884;8.338;2023-12-20T08:09:26;2.70;;;2.00;;
10880;SDS011;5493;48.884;8.338;2023-12-20T08:11:52;2.50;;;2.17;;
10880;SDS011;5493;48.884;8.338;2023-12-20T08:14:19;6.13;;;2.53;;
10880;SDS011;5493;48.884;8.338;2023-12-20T08:16:45;3.17;;;1.37;;
10880;SDS011;5493;48.884;8.338;2023-12-20T08:19:12;1.90;;;1.60;;
10880;SDS011;5493;48.884;8.338;2023-12-20T08:21:40;2.77;;;1.83;;
10880;SDS011;5493;48.884;8.338;2023-12-20T08:24:07;3.23;;;1.70;;
10880;SDS011;5493;48.884;8.338;2023-12-20T08:26:34;2.73;;;1.87;;
10880;SDS011;5493;48.884;8.338;2023-12-20T08:29:01;1.63;;;1.50;;
10880;SDS011;5493;48.884;8.338;2023-12-20T08:31:27;2.60;;;1.77;;
10880;SDS011;5493;48.884;8.338;2023-12-20T08:33:54;2.00;;;1.60;;
10880;SDS011;5493;48.884;8.338;2023-12-20T08:36:20;6.53;;;2.17;;
10880;SDS011;5493;48.884;8.338;2023-12-20T08:38:49;4.07;;;2.33;;
10880;SDS011;5493;48.884;8.338;2023-12-20T08:41:16;2.93;;;2.40;;
10880;SDS011;5493;48.884;8.338;2023-12-20T08:43:43;3.80;;;2.27;;
10880;SDS011;5493;48.884;8.338;2023-12-20T08:46:09;3.23;;;2.20;;
10880;SDS011;5493;48.884;8.338;2023-12-20T08:48:36;4.70;;;2.60;;
10880;SDS011;5493;48.884;8.338;2023-12-20T08:51:03;3.77;;;2.10;;
10880;SDS011;5493;48.884;8.338;2023-12-20T08:53:32;3.03;;;2.00;;
10880;SDS011;5493;48.884;8.338;2023-12-20T08:56:00;1.90;;;1.70;;
10880;SDS011;5493;48.884;8.338;2023-12-20T08:58:27;1.77;;;1.47;;
10880;SDS011;5493;48.884;8.338;2023-12-20T09:00:53;1.60;;;0.93;;
10880;SDS011;5493;48.884;8.338;2023-12-20T09:03:20;4.43;;;1.97;;
10880;SDS011;5493;48.884;8.338;2023-12-20T09:05:46;3.90;;;2.33;;
10880;SDS011;5493;48.884;8.338;2023-12-20T09:08:12;3.20;;;2.00;;
10880;SDS011;5493;48.884;8.338;2023-12-20T09:10:39;5.67;;;2.20;;
10880;SDS011;5493;48.884;8.338;2023-12-20T09:13:07;5.07;;;2.00;;
10880;SDS011;5493;48.884;8.338;2023-12-20T09:15:33;1.23;;;0.97;;
10880;SDS011;5493;48.884;8.338;2023-12-20T09:18:00;4.23;;;2.10;;
10880;SDS011;5493;48.884;8.338;2023-12-20T09:20:27;5.63;;;2.20;;
10880;SDS011;5493;48.884;8.338;2023-12-20T09:22:54;4.10;;;1.70;;
10880;SDS011;5493;48.884;8.338;2023-12-20T09:25:20;1.73;;;1.23;;
10880;SDS011;5493;48.884;8.338;2023-12-20T09:27:48;4.87;;;1.90;;
10880;SDS011;5493;48.884;8.338;2023-12-20T09:30:16;1.40;;;1.30;;
10880;SDS011;5493;48.884;8.338;2023-12-20T09:32:42;2.23;;;1.40;;
10880;SDS011;5493;48.884;8.338;2023-12-20T09:35:09;3.17;;;1.80;;
10880;SDS011;5493;48.884;8.338;2023-12-20T09:37:35;1.40;;;1.27;;
10880;SDS011;5493;48.884;8.338;2023-12-20T09:40:10;3.10;;;1.53;;
10880;SDS011;5493;48.884;8.338;2023-12-20T09:42:39;3.00;;;1.53;;
10880;SDS011;5493;48.884;8.338;2023-12-20T09:45:16;4.27;;;1.83;;
10880;SDS011;5493;48.884;8.338;2023-12-20T09:47:46;3.60;;;2.10;;
10880;SDS011;5493;48.884;8.338;2023-12-20T09:50:13;2.60;;;1.67;;
10880;SDS011;5493;48.884;8.338;2023-12-20T09:52:40;3.03;;;1.70;;
10880;SDS011;5493;48.884;8.338;2023-12-20T09:55:09;5.77;;;1.40;;
10880;SDS011;5493;48.884;8.338;2023-12-20T09:57:36;4.33;;;2.03;;
10880;SDS011;5493;48.884;8.338;2023-12-20T10:00:11;2.00;;;1.33;;
10880;SDS011;5493;48.884;8.338;2023-12-20T10:02:40;2.97;;;1.20;;
10880;SDS011;5493;48.884;8.338;2023-12-20T10:05:11;2.83;;;2.07;;
10880;SDS011;5493;48.884;8.338;2023-12-20T10:07:44;4.63;;;1.70;;
10880;SDS011;5493;48.884;8.338;2023-12-20T10:10:20;6.40;;;2.50;;
10880;SDS011;5493;48.884;8.338;2023-12-20T10:13:02;6.40;;;2.30;;
10880;SDS011;5493;48.884;8.338;2023-12-20T10:15:30;4.97;;;2.50;;
10880;SDS011;5493;48.884;8.338;2023-12-20T10:17:59;5.27;;;1.73;;
10880;SDS011;5493;48.884;8.338;2023-12-20T10:20:26;3.97;;;1.40;;
10880;SDS011;5493;48.884;8.338;2023-12-20T10:22:54;3.30;;;1.53;;
10880;SDS011;5493;48.884;8.338;2023-12-20T10:25:20;3.77;;;1.83;;
10880;SDS011;5493;48.884;8.338;2023-12-20T10:27:47;2.80;;;1.93;;
10880;SDS011;5493;48.884;8.338;2023-12-20T10:30:14;3.63;;;1.90;;
10880;SDS011;5493;48.884;8.338;2023-12-20T10:32:40;4.60;;;1.93;;
10880;SDS011;5493;48.884;8.338;2023-12-20T10:35:08;4.80;;;1.93;;
10880;SDS011;5493;48.884;8.338;2023-12-20T10:37:36;3.77;;;1.03;;
10880;SDS011;5493;48.884;8.338;2023-12-20T10:40:03;4.97;;;1.83;;
10880;SDS011;5493;48.884;8.338;2023-12-20T10:42:31;3.80;;;1.80;;
10880;SDS011;5493;48.884;8.338;2023-12-20T10:44:59;3.17;;;1.87;;
10880;SDS011;5493;48.884;8.338;2023-12-20T10:47:25;3.07;;;1.73;;
10880;SDS011;5493;48.884;8.338;2023-12-20T10:49:53;2.47;;;1.50;;
10880;SDS011;5493;48.884;8.338;2023-12-20T10:52:22;3.37;;;1.70;;
10880;SDS011;5493;48.884;8.338;2023-12-20T10:54:49;4.23;;;1.93;;
10880;SDS011;5493;48.884;8.338;2023-12-20T10:57:16;3.60;;;1.67;;
10880;SDS011;5493;48.884;8.338;2023-12-20T10:59:44;2.10;;;1.13;;
10880;SDS011;5493;48.884;8.338;2023-12-20T11:02:12;1.70;;;1.07;;
10880;SDS011;5493;48.884;8.338;2023-12-20T11:04:42;2.80;;;1.90;;
10880;SDS011;5493;48.884;8.338;2023-12-20T11:07:16;4.23;;;2.40;;
10880;SDS011;5493;48.884;8.338;2023-12-20T11:09:49;3.90;;;2.10;;
10880;SDS011;5493;48.884;8.338;2023-12-20T11:12:28;2.43;;;1.67;;
10880;SDS011;5493;48.884;8.338;2023-12-20T11:15:02;5.60;;;2.20;;
10880;SDS011;5493;48.884;8.338;2023-12-20T11:17:31;1.73;;;1.50;;
10880;SDS011;5493;48.884;8.338;2023-12-20T11:20:15;3.50;;;1.87;;
10880;SDS011;5493;48.884;8.338;2023-12-20T11:22:51;5.33;;;1.40;;
10880;SDS011;5493;48.884;8.338;2023-12-20T11:25:20;3.93;;;2.07;;
10880;SDS011;5493;48.884;8.338;2023-12-20T11:30:40;3.20;;;1.80;;
10880;SDS011;5493;48.884;8.338;2023-12-20T11:33:07;3.40;;;1.57;;
10880;SDS011;5493;48.884;8.338;2023-12-20T11:35:35;3.60;;;1.80;;
10880;SDS011;5493;48.884;8.338;2023-12-20T11:38:08;2.83;;;1.80;;
10880;SDS011;5493;48.884;8.338;2023-12-20T11:40:36;4.67;;;1.93;;
10880;SDS011;5493;48.884;8.338;2023-12-20T11:43:03;3.97;;;1.60;;
10880;SDS011;5493;48.884;8.338;2023-12-20T11:45:29;5.37;;;1.70;;
10880;SDS011;5493;48.884;8.338;2023-12-20T11:47:57;3.93;;;1.80;;
10880;SDS011;5493;48.884;8.338;2023-12-20T11:50:24;5.53;;;2.10;;
10880;SDS011;5493;48.884;8.338;2023-12-20T11:52:51;6.27;;;2.00;;
10880;SDS011;5493;48.884;8.338;2023-12-20T11:55:19;2.60;;;1.37;;
10880;SDS011;5493;48.884;8.338;2023-12-20T11:57:47;2.50;;;1.10;;
10880;SDS011;5493;48.884;8.338;2023-12-20T12:00:17;2.47;;;1.53;;
10880;SDS011;5493;48.884;8.338;2023-12-20T12:02:55;2.23;;;1.53;;
10880;SDS011;5493;48.884;8.338;2023-12-20T12:05:22;2.60;;;1.30;;
10880;SDS011;5493;48.884;8.338;2023-12-20T12:07:49;3.27;;;1.90;;
10880;SDS011;5493;48.884;8.338;2023-12-20T12:10:15;4.70;;;1.93;;
10880;SDS011;5493;48.884;8.338;2023-12-20T12:12:42;5.10;;;1.90;;
10880;SDS011;5493;48.884;8.338;2023-12-20T12:15:10;2.63;;;1.77;;
10880;SDS011;5493;48.884;8.338;2023-12-20T12:17:36;4.30;;;1.43;;
10880;SDS011;5493;48.884;8.338;2023-12-20T12:20:03;2.93;;;1.63;;
10880;SDS011;5493;48.884;8.338;2023-12-20T12:22:31;2.10;;;1.60;;
10880;SDS011;5493;48.884;8.338;2023-12-20T12:24:58;3.47;;;1.23;;
10880;SDS011;5493;48.884;8.338;2023-12-20T12:27:27;1.03;;;0.60;;
10880;SDS011;5493;48.884;8.338;2023-12-20T12:30:00;3.03;;;1.60;;
10880;SDS011;5493;48.884;8.338;2023-12-20T12:32:31;2.93;;;1.30;;
10880;SDS011;5493;48.884;8.338;2023-12-20T12:34:58;3.40;;;1.00;;
10880;SDS011;5493;48.884;8.338;2023-12-20T12:37:25;2.93;;;1.57;;
10880;SDS011;5493;48.884;8.338;2023-12-20T12:39:53;9.20;;;2.40;;
10880;SDS011;5493;48.884;8.338;2023-12-20T12:42:22;3.10;;;2.20;;
10880;SDS011;5493;48.884;8.338;2023-12-20T12:44:53;2.73;;;0.93;;
10880;SDS011;5493;48.884;8.338;2023-12-20T12:47:20;5.77;;;2.30;;
10880;SDS011;5493;48.884;8.338;2023-12-20T12:49:48;5.03;;;2.03;;
10880;SDS011;5493;48.884;8.338;2023-12-20T12:52:20;3.53;;;1.47;;
10880;SDS011;5493;48.884;8.338;2023-12-20T12:54:58;5.53;;;2.00;;
10880;SDS011;5493;48.884;8.338;2023-12-20T12:57:25;4.30;;;2.03;;
10880;SDS011;5493;48.884;8.338;2023-12-20T12:59:51;6.60;;;2.70;;
10880;SDS011;5493;48.884;8.338;2023-12-20T13:02:18;5.50;;;2.20;;
10880;SDS011;5493;48.884;8.338;2023-12-20T13:04:45;2.70;;;1.67;;
10880;SDS011;5493;48.884;8.338;2023-12-20T13:07:13;5.70;;;2.10;;
10880;SDS011;5493;48.884;8.338;2023-12-20T13:09:40;6.97;;;2.37;;
10880;SDS011;5493;48.884;8.338;2023-12-20T13:12:07;5.90;;;2.37;;
10880;SDS011;5493;48.884;8.338;2023-12-20T13:14:34;5.50;;;1.67;;
10880;SDS011;5493;48.884;8.338;2023-12-20T13:17:02;1.77;;;1.30;;
10880;SDS011;5493;48.884;8.338;2023-12-20T13:19:28;6.80;;;2.13;;
10880;SDS011;5493;48.884;8.338;2023-12-20T13:21:55;1.60;;;0.83;;
10880;SDS011;5493;48.884;8.338;2023-12-20T13:24:24;3.60;;;1.97;;
10880;SDS011;5493;48.884;8.338;2023-12-20T13:26:51;1.87;;;1.07;;
10880;SDS011;5493;48.884;8.338;2023-12-20T13:29:17;2.00;;;1.10;;
10880;SDS011;5493;48.884;8.338;2023-12-20T13:31:49;3.40;;;1.57;;
10880;SDS011;5493;48.884;8.338;2023-12-20T13:34:21;2.43;;;1.00;;
10880;SDS011;5493;48.884;8.338;2023-12-20T13:36:48;6.50;;;2.07;;
10880;SDS011;5493;48.884;8.338;2023-12-20T13:39:16;4.43;;;1.37;;
10880;SDS011;5493;48.884;8.338;2023-12-20T13:41:44;4.70;;;0.90;;
10880;SDS011;5493;48.884;8.338;2023-12-20T13:44:11;4.67;;;1.63;;
10880;SDS011;5493;48.884;8.338;2023-12-20T13:46:37;3.03;;;1.37;;
10880;SDS011;5493;48.884;8.338;2023-12-20T13:49:04;3.10;;;1.17;;
10880;SDS011;5493;48.884;8.338;2023-12-20T13:51:31;3.00;;;1.70;;
10880;SDS011;5493;48.884;8.338;2023-12-20T13:53:57;4.63;;;1.63;;
10880;SDS011;5493;48.884;8.338;2023-12-20T13:56:24;3.90;;;1.70;;
10880;SDS011;5493;48.884;8.338;2023-12-20T13:58:52;8.13;;;2.27;;
10880;SDS011;5493;48.884;8.338;2023-12-20T14:01:19;2.73;;;1.77;;
10880;SDS011;5493;48.884;8.338;2023-12-20T14:03:45;3.53;;;2.00;;
10880;SDS011;5493;48.884;8.338;2023-12-20T14:06:12;4.43;;;1.90;;
10880;SDS011;5493;48.884;8.338;2023-12-20T14:08:40;4.27;;;2.00;;
10880;SDS011;5493;48.884;8.338;2023-12-20T14:11:07;2.93;;;1.17;;
10880;SDS011;5493;48.884;8.338;2023-12-20T14:13:34;5.60;;;1.93;;
10880;SDS011;5493;48.884;8.338;2023-12-20T14:16:02;4.03;;;1.33;;
10880;SDS011;5493;48.884;8.338;2023-12-20T14:18:29;4.37;;;1.67;;
10880;SDS011;5493;48.884;8.338;2023-12-20T14:20:55;2.33;;;1.03;;
10880;SDS011;5493;48.884;8.338;2023-12-20T14:23:22;4.80;;;1.40;;
10880;SDS011;5493;48.884;8.338;2023-12-20T14:25:48;2.33;;;1.00;;
10880;SDS011;5493;48.884;8.338;2023-12-20T14:28:15;1.27;;;1.10;;
10880;SDS011;5493;48.884;8.338;2023-12-20T14:30:41;3.70;;;1.40;;
10880;SDS011;5493;48.884;8.338;2023-12-20T14:33:09;2.80;;;1.00;;
10880;SDS011;5493;48.884;8.338;2023-12-20T14:35:36;5.20;;;1.30;;
10880;SDS011;5493;48.884;8.338;2023-12-20T14:38:02;4.63;;;1.60;;
10880;SDS011;5493;48.884;8.338;2023-12-20T14:40:29;3.70;;;1.50;;
10880;SDS011;5493;48.884;8.338;2023-12-20T14:42:56;2.23;;;1.57;;
10880;SDS011;5493;48.884;8.338;2023-12-20T14:45:26;5.13;;;1.57;;
10880;SDS011;5493;48.884;8.338;2023-12-20T14:48:01;6.93;;;1.70;;
10880;SDS011;5493;48.884;8.338;2023-12-20T14:50:29;2.47;;;1.57;;
10880;SDS011;5493;48.884;8.338;2023-12-20T14:52:56;4.40;;;1.57;;
10880;SDS011;5493;48.884;8.338;2023-12-20T14:55:22;4.23;;;2.23;;
10880;SDS011;5493;48.884;8.338;2023-12-20T14:57:51;5.47;;;2.40;;
10880;SDS011;5493;48.884;8.338;2023-12-20T15:00:18;3.57;;;1.60;;
10880;SDS011;5493;48.884;8.338;2023-12-20T15:02:45;3.07;;;1.47;;
10880;SDS011;5493;48.884;8.338;2023-12-20T15:05:12;4.23;;;1.30;;